sensor_id;sensor_type;location;lat;lon;timestamp;pressure;altitude;pressure_sealevel;temperature;humidity
73383;BME280;61600;48.126;11.542;2023-03-11T00:00:20;94316.44;;;5.16;52.80
73383;BME280;61600;48.126;11.542;2023-03-11T00:02:52;94339.97;;;5.05;53.28
73383;BME280;61600;48.126;11.542;2023-03-11T00:05:29;94330.31;;;5.28;52.64
73383;BME280;61600;48.126;11.542;2023-03-11T00:07:59;94337.94;;;4.92;52.64
73383;BME280;61600;48.126;11.542;2023-03-11T00:10:31;94341.53;;;5.11;51.94
73383;BME280;61600;48.126;11.542;2023-03-11T00:12:58;94350.91;;;5.19;51.63
73383;BME280;61600;48.126;11.542;2023-03-11T00:15:28;94345.03;;;4.78;51.80
73383;BME280;61600;48.126;11.542;2023-03-11T00:17:54;94333.72;;;4.81;51.69
73383;BME280;61600;48.126;11.542;2023-03-11T00:22:50;94344.50;;;4.76;51.73
73383;BME280;61600;48.126;11.542;2023-03-11T00:25:20;94371.66;;;4.45;52.89
73383;BME280;61600;48.126;11.542;2023-03-11T00:27:47;94366.91;;;4.71;52.44
73383;BME280;61600;48.126;11.542;2023-03-11T00:30:14;94356.13;;;4.71;51.98
73383;BME280;61600;48.126;11.542;2023-03-11T00:32:40;94363.41;;;4.71;51.66
73383;BME280;61600;48.126;11.542;2023-03-11T00:35:07;94365.91;;;4.96;51.04
73383;BME280;61600;48.126;11.542;2023-03-11T00:37:36;94369.63;;;4.66;51.36
73383;BME280;61600;48.126;11.542;2023-03-11T00:40:05;94373.31;;;4.75;51.47
73383;BME280;61600;48.126;11.542;2023-03-11T00:42:33;94368.75;;;4.76;51.59
73383;BME280;61600;48.126;11.542;2023-03-11T00:44:59;94365.63;;;4.64;51.83
73383;BME280;61600;48.126;11.542;2023-03-11T00:47:25;94361.78;;;4.75;51.71
73383;BME280;61600;48.126;11.542;2023-03-11T00:49:59;94368.72;;;4.81;51.58
73383;BME280;61600;48.126;11.542;2023-03-11T00:52:28;94388.25;;;4.58;52.05
73383;BME280;61600;48.126;11.542;2023-03-11T00:54:54;94371.06;;;4.53;52.22
73383;BME280;61600;48.126;11.542;2023-03-11T00:57:20;94375.66;;;4.48;52.32
73383;BME280;61600;48.126;11.542;2023-03-11T00:59:45;94372.44;;;4.46;52.57
73383;BME280;61600;48.126;11.542;2023-03-11T01:02:11;94379.88;;;4.64;52.48
73383;BME280;61600;48.126;11.542;2023-03-11T01:04:39;94391.22;;;4.56;52.23
73383;BME280;61600;48.126;11.542;2023-03-11T01:07:21;94385.75;;;4.71;52.04
73383;BME280;61600;48.126;11.542;2023-03-11T01:09:47;94384.53;;;4.53;52.46
73383;BME280;61600;48.126;11.542;2023-03-11T01:12:15;94380.06;;;4.73;52.57
73383;BME280;61600;48.126;11.542;2023-03-11T01:14:41;94369.44;;;4.52;52.75
73383;BME280;61600;48.126;11.542;2023-03-11T01:17:06;94389.38;;;4.51;52.81
73383;BME280;61600;48.126;11.542;2023-03-11T01:19:35;94378.84;;;4.55;52.82
73383;BME280;61600;48.126;11.542;2023-03-11T01:22:01;94380.16;;;4.58;52.96
73383;BME280;61600;48.126;11.542;2023-03-11T01:24:26;94392.72;;;4.28;53.35
73383;BME280;61600;48.126;11.542;2023-03-11T01:26:52;94379.78;;;4.35;53.20
73383;BME280;61600;48.126;11.542;2023-03-11T01:29:20;94380.53;;;4.46;53.28
73383;BME280;61600;48.126;11.542;2023-03-11T01:31:46;94385.59;;;4.52;53.42
73383;BME280;61600;48.126;11.542;2023-03-11T01:34:12;94385.50;;;4.19;53.92
73383;BME280;61600;48.126;11.542;2023-03-11T01:36:38;94371.88;;;4.00;54.01
73383;BME280;61600;48.126;11.542;2023-03-11T01:39:04;94400.31;;;4.21;53.86
73383;BME280;61600;48.126;11.542;2023-03-11T01:41:30;94400.31;;;4.21;53.46
73383;BME280;61600;48.126;11.542;2023-03-11T01:43:56;94408.28;;;4.36;53.66
73383;BME280;61600;48.126;11.542;2023-03-11T01:48:55;94404.78;;;4.41;53.64
73383;BME280;61600;48.126;11.542;2023-03-11T01:51:37;94387.81;;;4.40;53.56
73383;BME280;61600;48.126;11.542;2023-03-11T01:54:17;94404.88;;;4.21;54.08
73383;BME280;61600;48.126;11.542;2023-03-11T01:56:45;94391.84;;;4.43;53.68
73383;BME280;61600;48.126;11.542;2023-03-11T01:59:13;94397.88;;;4.20;53.96
73383;BME280;61600;48.126;11.542;2023-03-11T02:04:48;94387.47;;;3.98;53.55
73383;BME280;61600;48.126;11.542;2023-03-11T02:07:15;94392.25;;;4.16;53.24
73383;BME280;61600;48.126;11.542;2023-03-11T02:09:41;94383.09;;;4.17;52.67
73383;BME280;61600;48.126;11.542;2023-03-11T02:12:08;94390.09;;;4.18;52.43
73383;BME280;61600;48.126;11.542;2023-03-11T02:14:39;94401.88;;;4.22;51.99
73383;BME280;61600;48.126;11.542;2023-03-11T02:17:07;94412.09;;;4.30;51.70
73383;BME280;61600;48.126;11.542;2023-03-11T02:22:17;94421.63;;;4.02;52.73
73383;BME280;61600;48.126;11.542;2023-03-11T02:27:52;94415.47;;;3.92;52.88
73383;BME280;61600;48.126;11.542;2023-03-11T02:30:20;94405.25;;;3.84;52.95
73383;BME280;61600;48.126;11.542;2023-03-11T02:32:47;94420.22;;;4.20;52.38
73383;BME280;61600;48.126;11.542;2023-03-11T02:35:15;94421.38;;;3.99;52.53
73383;BME280;61600;48.126;11.542;2023-03-11T02:37:50;94430.78;;;3.96;53.18
73383;BME280;61600;48.126;11.542;2023-03-11T02:42:57;94434.84;;;3.89;53.42
73383;BME280;61600;48.126;11.542;2023-03-11T02:45:25;94434.59;;;3.85;53.30
73383;BME280;61600;48.126;11.542;2023-03-11T02:47:56;94450.19;;;3.78;53.73
73383;BME280;61600;48.126;11.542;2023-03-11T02:50:23;94439.41;;;3.88;53.30
73383;BME280;61600;48.126;11.542;2023-03-11T02:52:50;94439.41;;;3.88;52.90
73383;BME280;61600;48.126;11.542;2023-03-11T02:55:16;94457.22;;;3.59;53.66
73383;BME280;61600;48.126;11.542;2023-03-11T02:57:43;94444.03;;;3.73;53.18
73383;BME280;61600;48.126;11.542;2023-03-11T03:00:10;94444.78;;;3.93;52.60
73383;BME280;61600;48.126;11.542;2023-03-11T03:02:42;94440.56;;;3.62;52.65
73383;BME280;61600;48.126;11.542;2023-03-11T03:05:08;94444.25;;;3.91;52.41
73383;BME280;61600;48.126;11.542;2023-03-11T03:07:35;94441.91;;;3.60;53.05
73383;BME280;61600;48.126;11.542;2023-03-11T03:10:02;94457.75;;;3.61;52.63
73383;BME280;61600;48.126;11.542;2023-03-11T03:12:27;94450.75;;;3.75;52.18
73383;BME280;61600;48.126;11.542;2023-03-11T03:14:53;94460.97;;;3.63;52.18
73383;BME280;61600;48.126;11.542;2023-03-11T03:17:19;94470.38;;;3.71;52.33
73383;BME280;61600;48.126;11.542;2023-03-11T03:19:44;94463.97;;;3.51;52.54
73383;BME280;61600;48.126;11.542;2023-03-11T03:22:10;94462.84;;;3.78;51.99
73383;BME280;61600;48.126;11.542;2023-03-11T03:24:36;94455.88;;;3.41;52.32
73383;BME280;61600;48.126;11.542;2023-03-11T03:27:01;94458.59;;;3.36;52.85
73383;BME280;61600;48.126;11.542;2023-03-11T03:29:27;94469.59;;;3.40;52.61
73383;BME280;61600;48.126;11.542;2023-03-11T03:31:53;94465.03;;;3.40;52.50
73383;BME280;61600;48.126;11.542;2023-03-11T03:34:19;94466.09;;;3.39;52.58
73383;BME280;61600;48.126;11.542;2023-03-11T03:36:45;94458.31;;;3.43;52.36
73383;BME280;61600;48.126;11.542;2023-03-11T03:39:10;94454.03;;;3.37;52.68
73383;BME280;61600;48.126;11.542;2023-03-11T03:41:36;94463.16;;;3.51;52.33
73383;BME280;61600;48.126;11.542;2023-03-11T03:44:02;94474.16;;;3.49;52.25
73383;BME280;61600;48.126;11.542;2023-03-11T03:46:28;94476.84;;;3.24;52.57
73383;BME280;61600;48.126;11.542;2023-03-11T03:48:54;94481.16;;;3.35;52.47
73383;BME280;61600;48.126;11.542;2023-03-11T03:51:19;94486.53;;;3.45;52.55
73383;BME280;61600;48.126;11.542;2023-03-11T03:53:45;94468.53;;;3.61;51.48
73383;BME280;61600;48.126;11.542;2023-03-11T03:56:13;94467.97;;;3.79;51.26
73383;BME280;61600;48.126;11.542;2023-03-11T03:58:40;94467.44;;;3.62;51.87
73383;BME280;61600;48.126;11.542;2023-03-11T04:01:07;94471.47;;;3.60;51.47
73383;BME280;61600;48.126;11.542;2023-03-11T04:03:33;94476.28;;;3.63;51.46
73383;BME280;61600;48.126;11.542;2023-03-11T04:08:31;94500.25;;;3.69;51.41
73383;BME280;61600;48.126;11.542;2023-03-11T04:10:57;94494.28;;;3.87;50.71
73383;BME280;61600;48.126;11.542;2023-03-11T04:13:23;94492.69;;;3.81;51.02
73383;BME280;61600;48.126;11.542;2023-03-11T04:15:49;94499.19;;;3.55;51.72
73383;BME280;61600;48.126;11.542;2023-03-11T04:18:14;94499.97;;;3.71;51.67
73383;BME280;61600;48.126;11.542;2023-03-11T04:20:40;94493.25;;;3.68;51.88
73383;BME280;61600;48.126;11.542;2023-03-11T04:23:06;94495.13;;;3.27;52.64
73383;BME280;61600;48.126;11.542;2023-03-11T04:25:31;94498.09;;;3.61;52.27
73383;BME280;61600;48.126;11.542;2023-03-11T04:27:59;94490.03;;;3.46;52.41
73383;BME280;61600;48.126;11.542;2023-03-11T04:30:25;94494.06;;;3.38;52.96
73383;BME280;61600;48.126;11.542;2023-03-11T04:32:50;94490.03;;;3.61;52.22
73383;BME280;61600;48.126;11.542;2023-03-11T04:35:16;94487.06;;;3.73;51.77
73383;BME280;61600;48.126;11.542;2023-03-11T04:37:42;94487.06;;;3.73;51.92
73383;BME280;61600;48.126;11.542;2023-03-11T04:40:08;94489.22;;;3.61;52.42
73383;BME280;61600;48.126;11.542;2023-03-11T04:42:35;94488.41;;;3.75;51.82
73383;BME280;61600;48.126;11.542;2023-03-11T04:45:01;94510.47;;;3.47;52.43
73383;BME280;61600;48.126;11.542;2023-03-11T04:47:27;94498.38;;;3.55;52.59
73383;BME280;61600;48.126;11.542;2023-03-11T04:49:53;94495.13;;;3.58;52.74
73383;BME280;61600;48.126;11.542;2023-03-11T04:52:21;94508.03;;;3.45;52.89
73383;BME280;61600;48.126;11.542;2023-03-11T04:54:46;94504.81;;;3.38;53.29
73383;BME280;61600;48.126;11.542;2023-03-11T04:57:12;94500.50;;;3.42;53.01
73383;BME280;61600;48.126;11.542;2023-03-11T04:59:38;94508.03;;;3.50;52.82
73383;BME280;61600;48.126;11.542;2023-03-11T05:02:04;94515.28;;;3.35;53.50
73383;BME280;61600;48.126;11.542;2023-03-11T05:04:29;94512.34;;;3.57;52.93
73383;BME280;61600;48.126;11.542;2023-03-11T05:06:55;94514.47;;;3.49;53.16
73383;BME280;61600;48.126;11.542;2023-03-11T05:09:21;94513.94;;;3.68;52.78
73383;BME280;61600;48.126;11.542;2023-03-11T05:11:47;94516.34;;;3.49;53.32
73383;BME280;61600;48.126;11.542;2023-03-11T05:14:12;94524.16;;;3.61;53.30
73383;BME280;61600;48.126;11.542;2023-03-11T05:16:38;94525.25;;;3.65;53.26
73383;BME280;61600;48.126;11.542;2023-03-11T05:19:04;94533.81;;;3.77;53.22
73383;BME280;61600;48.126;11.542;2023-03-11T05:21:49;94538.94;;;3.63;53.60
73383;BME280;61600;48.126;11.542;2023-03-11T05:24:15;94537.88;;;3.69;53.71
73383;BME280;61600;48.126;11.542;2023-03-11T05:26:41;94547.28;;;3.77;53.26
73383;BME280;61600;48.126;11.542;2023-03-11T05:29:06;94545.66;;;3.81;53.41
73383;BME280;61600;48.126;11.542;2023-03-11T05:31:32;94541.34;;;3.85;53.60
73383;BME280;61600;48.126;11.542;2023-03-11T05:33:58;94547.00;;;3.73;53.33
73383;BME280;61600;48.126;11.542;2023-03-11T05:36:23;94559.13;;;3.86;53.23
73383;BME280;61600;48.126;11.542;2023-03-11T05:38:49;94559.91;;;3.96;53.27
73383;BME280;61600;48.126;11.542;2023-03-11T05:41:15;94562.34;;;3.83;53.64
73383;BME280;61600;48.126;11.542;2023-03-11T05:43:40;94564.78;;;3.79;53.65
73383;BME280;61600;48.126;11.542;2023-03-11T05:46:06;94572.00;;;3.74;54.33
73383;BME280;61600;48.126;11.542;2023-03-11T05:48:32;94553.75;;;3.76;53.98
73383;BME280;61600;48.126;11.542;2023-03-11T05:50:58;94552.41;;;3.58;54.09
73383;BME280;61600;48.126;11.542;2023-03-11T05:53:23;94570.13;;;3.34;54.45
73383;BME280;61600;48.126;11.542;2023-03-11T05:55:59;94556.41;;;3.40;53.47
73383;BME280;61600;48.126;11.542;2023-03-11T05:58:29;94562.88;;;3.70;52.46
73383;BME280;61600;48.126;11.542;2023-03-11T06:00:55;94563.13;;;3.43;53.16
73383;BME280;61600;48.126;11.542;2023-03-11T06:03:21;94567.44;;;3.34;51.93
73383;BME280;61600;48.126;11.542;2023-03-11T06:05:48;94566.81;;;3.07;51.58
73383;BME280;61600;48.126;11.542;2023-03-11T06:08:14;94570.91;;;3.29;50.88
73383;BME280;61600;48.126;11.542;2023-03-11T06:10:41;94565.22;;;3.06;50.21
73383;BME280;61600;48.126;11.542;2023-03-11T06:13:07;94567.72;;;3.37;50.28
73383;BME280;61600;48.126;11.542;2023-03-11T06:15:33;94567.69;;;3.63;49.36
73383;BME280;61600;48.126;11.542;2023-03-11T06:17:59;94567.16;;;3.45;49.55
73383;BME280;61600;48.126;11.542;2023-03-11T06:20:25;94583.56;;;3.59;49.16
73383;BME280;61600;48.126;11.542;2023-03-11T06:22:51;94595.34;;;3.28;48.64
73383;BME280;61600;48.126;11.542;2023-03-11T06:25:17;94596.94;;;3.09;49.03
73383;BME280;61600;48.126;11.542;2023-03-11T06:27:43;94592.63;;;3.18;48.85
73383;BME280;61600;48.126;11.542;2023-03-11T06:30:13;94592.97;;;3.36;48.20
73383;BME280;61600;48.126;11.542;2023-03-11T06:32:39;94591.91;;;3.37;48.35
73383;BME280;61600;48.126;11.542;2023-03-11T06:35:05;94600.72;;;3.38;48.37
73383;BME280;61600;48.126;11.542;2023-03-11T06:37:30;94592.66;;;3.13;48.37
73383;BME280;61600;48.126;11.542;2023-03-11T06:39:56;94614.97;;;3.28;48.29
73383;BME280;61600;48.126;11.542;2023-03-11T06:42:22;94614.72;;;3.45;47.90
73383;BME280;61600;48.126;11.542;2023-03-11T06:44:51;94616.09;;;3.47;47.76
73383;BME280;61600;48.126;11.542;2023-03-11T06:47:17;94625.75;;;3.33;47.54
73383;BME280;61600;48.126;11.542;2023-03-11T06:49:43;94622.75;;;3.25;48.20
73383;BME280;61600;48.126;11.542;2023-03-11T06:52:09;94626.28;;;3.45;48.65
73383;BME280;61600;48.126;11.542;2023-03-11T06:54:35;94623.03;;;3.38;48.11
73383;BME280;61600;48.126;11.542;2023-03-11T06:57:01;94612.78;;;3.20;48.47
73383;BME280;61600;48.126;11.542;2023-03-11T06:59:26;94626.28;;;3.40;48.57
73383;BME280;61600;48.126;11.542;2023-03-11T07:01:53;94627.59;;;3.23;48.88
73383;BME280;61600;48.126;11.542;2023-03-11T07:04:19;94636.72;;;3.22;48.65
73383;BME280;61600;48.126;11.542;2023-03-11T07:06:45;94643.50;;;3.44;48.50
73383;BME280;61600;48.126;11.542;2023-03-11T07:09:12;94651.53;;;3.34;48.73
73383;BME280;61600;48.126;11.542;2023-03-11T07:11:38;94661.19;;;3.25;48.77
73383;BME280;61600;48.126;11.542;2023-03-11T07:14:04;94655.28;;;3.28;48.40
73383;BME280;61600;48.126;11.542;2023-03-11T07:16:30;94659.59;;;3.34;48.88
73383;BME280;61600;48.126;11.542;2023-03-11T07:18:57;94665.56;;;3.51;48.88
73383;BME280;61600;48.126;11.542;2023-03-11T07:21:26;94666.13;;;3.59;49.68
73383;BME280;61600;48.126;11.542;2023-03-11T07:23:57;94661.56;;;3.64;49.84
73383;BME280;61600;48.126;11.542;2023-03-11T07:26:24;94675.16;;;3.27;51.30
73383;BME280;61600;48.126;11.542;2023-03-11T07:28:50;94689.06;;;3.09;52.06
73383;BME280;61600;48.126;11.542;2023-03-11T07:31:20;94688.78;;;3.06;52.16
73383;BME280;61600;48.126;11.542;2023-03-11T07:33:48;94682.06;;;3.08;51.87
73383;BME280;61600;48.126;11.542;2023-03-11T07:36:16;94689.88;;;3.10;52.11
73383;BME280;61600;48.126;11.542;2023-03-11T07:38:45;94701.94;;;3.07;52.21
73383;BME280;61600;48.126;11.542;2023-03-11T07:41:12;94717.19;;;2.96;52.79
73383;BME280;61600;48.126;11.542;2023-03-11T07:43:39;94707.94;;;3.34;52.24
73383;BME280;61600;48.126;11.542;2023-03-11T07:46:11;94715.28;;;3.49;51.64
73383;BME280;61600;48.126;11.542;2023-03-11T07:48:38;94715.97;;;3.19;52.79
73383;BME280;61600;48.126;11.542;2023-03-11T07:51:11;94715.72;;;3.31;52.37
73383;BME280;61600;48.126;11.542;2023-03-11T07:53:37;94713.94;;;3.57;52.00
73383;BME280;61600;48.126;11.542;2023-03-11T07:56:06;94716.47;;;3.93;51.23
73383;BME280;61600;48.126;11.542;2023-03-11T07:58:32;94720.75;;;3.79;50.86
73383;BME280;61600;48.126;11.542;2023-03-11T08:01:05;94725.50;;;3.57;51.01
73383;BME280;61600;48.126;11.542;2023-03-11T08:03:34;94726.38;;;3.78;51.19
73383;BME280;61600;48.126;11.542;2023-03-11T08:06:00;94725.59;;;3.82;50.83
73383;BME280;61600;48.126;11.542;2023-03-11T08:08:26;94725.88;;;3.96;50.37
73383;BME280;61600;48.126;11.542;2023-03-11T08:10:52;94726.94;;;3.85;50.08
73383;BME280;61600;48.126;11.542;2023-03-11T08:13:19;94725.63;;;3.97;49.75
73383;BME280;61600;48.126;11.542;2023-03-11T08:15:44;94729.69;;;4.10;49.41
73383;BME280;61600;48.126;11.542;2023-03-11T08:18:11;94722.69;;;4.04;49.25
73383;BME280;61600;48.126;11.542;2023-03-11T08:20:37;94728.06;;;4.19;49.39
73383;BME280;61600;48.126;11.542;2023-03-11T08:23:03;94732.09;;;4.47;48.80
73383;BME280;61600;48.126;11.542;2023-03-11T08:25:29;94748.47;;;3.90;49.65
73383;BME280;61600;48.126;11.542;2023-03-11T08:28:01;94742.78;;;3.81;49.34
73383;BME280;61600;48.126;11.542;2023-03-11T08:30:32;94753.06;;;4.10;49.39
73383;BME280;61600;48.126;11.542;2023-03-11T08:32:58;94750.94;;;4.07;48.48
73383;BME280;61600;48.126;11.542;2023-03-11T08:35:24;94739.63;;;4.30;48.11
73383;BME280;61600;48.126;11.542;2023-03-11T08:37:51;94748.25;;;4.27;48.01
73383;BME280;61600;48.126;11.542;2023-03-11T08:40:17;94740.19;;;4.12;47.96
73383;BME280;61600;48.126;11.542;2023-03-11T08:42:43;94752.28;;;4.19;48.09
73383;BME280;61600;48.126;11.542;2023-03-11T08:45:10;94743.69;;;4.58;47.37
73383;BME280;61600;48.126;11.542;2023-03-11T08:47:37;94748.28;;;4.42;47.35
73383;BME280;61600;48.126;11.542;2023-03-11T08:50:11;94752.00;;;4.11;47.48
73383;BME280;61600;48.126;11.542;2023-03-11T08:52:37;94752.84;;;4.31;46.61
73383;BME280;61600;48.126;11.542;2023-03-11T08:55:03;94749.91;;;4.43;46.69
73383;BME280;61600;48.126;11.542;2023-03-11T08:57:30;94762.53;;;4.32;46.90
73383;BME280;61600;48.126;11.542;2023-03-11T08:59:56;94760.34;;;4.29;46.98
73383;BME280;61600;48.126;11.542;2023-03-11T09:02:25;94763.88;;;4.40;46.80
73383;BME280;61600;48.126;11.542;2023-03-11T09:05:03;94764.69;;;4.71;46.69
73383;BME280;61600;48.126;11.542;2023-03-11T09:07:29;94753.59;;;5.08;45.95
73383;BME280;61600;48.126;11.542;2023-03-11T09:09:55;94748.69;;;5.25;45.36
73383;BME280;61600;48.126;11.542;2023-03-11T09:12:22;94764.41;;;4.92;45.73
73383;BME280;61600;48.126;11.542;2023-03-11T09:14:50;94760.38;;;4.54;46.58
73383;BME280;61600;48.126;11.542;2023-03-11T09:17:19;94756.53;;;5.21;45.85
73383;BME280;61600;48.126;11.542;2023-03-11T09:19:53;94754.69;;;5.01;45.78
73383;BME280;61600;48.126;11.542;2023-03-11T09:22:19;94769.00;;;4.87;45.28
73383;BME280;61600;48.126;11.542;2023-03-11T09:24:45;94760.94;;;4.82;45.41
73383;BME280;61600;48.126;11.542;2023-03-11T09:27:11;94769.00;;;4.67;45.89
73383;BME280;61600;48.126;11.542;2023-03-11T09:29:40;94770.06;;;4.91;45.33
73383;BME280;61600;48.126;11.542;2023-03-11T09:32:12;94764.13;;;4.94;44.91
73383;BME280;61600;48.126;11.542;2023-03-11T09:34:38;94764.13;;;4.94;44.10
73383;BME280;61600;48.126;11.542;2023-03-11T09:37:04;94768.16;;;5.07;43.74
73383;BME280;61600;48.126;11.542;2023-03-11T09:39:30;94772.75;;;4.76;43.47
73383;BME280;61600;48.126;11.542;2023-03-11T09:41:58;94776.53;;;4.54;44.35
73383;BME280;61600;48.126;11.542;2023-03-11T09:44:35;94776.78;;;4.93;44.04
73383;BME280;61600;48.126;11.542;2023-03-11T09:56:09;94769.56;;;4.64;43.31
73383;BME280;61600;48.126;11.542;2023-03-11T09:59:16;94776.00;;;4.78;42.79
73383;BME280;61600;48.126;11.542;2023-03-11T10:01:36;94781.91;;;4.95;42.06
73383;BME280;61600;48.126;11.542;2023-03-11T10:04:25;94777.34;;;4.70;42.99
73383;BME280;61600;48.126;11.542;2023-03-11T10:06:55;94771.97;;;4.95;42.77
73383;BME280;61600;48.126;11.542;2023-03-11T10:09:40;94780.97;;;5.50;42.15
73383;BME280;61600;48.126;11.542;2023-03-11T10:20:44;94796.09;;;5.46;39.99
73383;BME280;61600;48.126;11.542;2023-03-11T10:23:25;94774.59;;;5.21;40.04
73383;BME280;61600;48.126;11.542;2023-03-11T10:28:27;94787.16;;;5.66;39.08
73383;BME280;61600;48.126;11.542;2023-03-11T10:31:04;94774.38;;;5.81;38.65
73383;BME280;61600;48.126;11.542;2023-03-11T10:33:38;94793.75;;;6.03;39.37
73383;BME280;61600;48.126;11.542;2023-03-11T10:36:15;94791.38;;;6.41;39.24
73383;BME280;61600;48.126;11.542;2023-03-11T10:38:48;94786.03;;;6.70;38.84
73383;BME280;61600;48.126;11.542;2023-03-11T10:44:17;94788.13;;;7.40;37.10
73383;BME280;61600;48.126;11.542;2023-03-11T10:46:44;94785.56;;;7.25;36.92
73383;BME280;61600;48.126;11.542;2023-03-11T10:49:16;94789.22;;;7.11;37.69
73383;BME280;61600;48.126;11.542;2023-03-11T10:51:48;94799.94;;;7.21;36.62
73383;BME280;61600;48.126;11.542;2023-03-11T10:54:28;94807.59;;;7.14;37.18
73383;BME280;61600;48.126;11.542;2023-03-11T10:56:58;94794.84;;;7.43;36.87
73383;BME280;61600;48.126;11.542;2023-03-11T10:59:33;94790.50;;;7.18;36.41
73383;BME280;61600;48.126;11.542;2023-03-11T11:02:32;94787.38;;;7.59;36.44
73383;BME280;61600;48.126;11.542;2023-03-11T11:05:06;94795.19;;;6.79;37.25
73383;BME280;61600;48.126;11.542;2023-03-11T11:07:35;94798.31;;;6.57;37.84
73383;BME280;61600;48.126;11.542;2023-03-11T11:12:59;94798.88;;;6.54;38.04
73383;BME280;61600;48.126;11.542;2023-03-11T11:15:30;94806.09;;;6.64;37.26
73383;BME280;61600;48.126;11.542;2023-03-11T11:17:59;94795.28;;;6.64;37.54
73383;BME280;61600;48.126;11.542;2023-03-11T11:20:26;94785.81;;;6.66;38.39
73383;BME280;61600;48.126;11.542;2023-03-11T11:23:02;94797.31;;;6.82;39.29
73383;BME280;61600;48.126;11.542;2023-03-11T11:25:36;94797.25;;;7.21;39.15
73383;BME280;61600;48.126;11.542;2023-03-11T11:28:17;94807.09;;;7.35;38.60
73383;BME280;61600;48.126;11.542;2023-03-11T11:31:01;94795.28;;;6.97;38.87
73383;BME280;61600;48.126;11.542;2023-03-11T11:33:31;94792.81;;;6.67;38.52
73383;BME280;61600;48.126;11.542;2023-03-11T11:36:02;94803.13;;;6.99;38.72
73383;BME280;61600;48.126;11.542;2023-03-11T11:38:30;94796.28;;;6.73;37.86
73383;BME280;61600;48.126;11.542;2023-03-11T11:41:00;94795.91;;;6.89;37.41
73383;BME280;61600;48.126;11.542;2023-03-11T11:43:53;94780.31;;;7.10;37.20
73383;BME280;61600;48.126;11.542;2023-03-11T11:46:40;94768.78;;;7.52;35.95
73383;BME280;61600;48.126;11.542;2023-03-11T11:51:55;94781.38;;;8.09;35.91
73383;BME280;61600;48.126;11.542;2023-03-11T11:54:55;94772.38;;;8.14;36.43
73383;BME280;61600;48.126;11.542;2023-03-11T11:57:24;94779.97;;;8.12;36.25
73383;BME280;61600;48.126;11.542;2023-03-11T11:59:50;94784.78;;;7.72;36.57
73383;BME280;61600;48.126;11.542;2023-03-11T12:12:37;94786.25;;;8.07;34.93
73383;BME280;61600;48.126;11.542;2023-03-11T12:15:19;94766.13;;;8.13;34.75
73383;BME280;61600;48.126;11.542;2023-03-11T12:17:51;94756.78;;;8.24;34.83
73383;BME280;61600;48.126;11.542;2023-03-11T12:20:30;94753.47;;;8.27;34.25
73383;BME280;61600;48.126;11.542;2023-03-11T12:23:03;94755.06;;;8.10;35.27
73383;BME280;61600;48.126;11.542;2023-03-11T12:25:39;94768.56;;;8.15;35.96
73383;BME280;61600;48.126;11.542;2023-03-11T12:28:53;94762.88;;;7.92;35.27
73383;BME280;61600;48.126;11.542;2023-03-11T12:30:57;94762.50;;;8.23;35.69
73383;BME280;61600;48.126;11.542;2023-03-11T12:33:43;94745.78;;;7.97;35.96
73383;BME280;61600;48.126;11.542;2023-03-11T12:36:21;94751.47;;;8.38;35.61
73383;BME280;61600;48.126;11.542;2023-03-11T12:38:48;94773.59;;;8.45;36.02
73383;BME280;61600;48.126;11.542;2023-03-11T12:41:38;94766.03;;;8.42;35.95
73383;BME280;61600;48.126;11.542;2023-03-11T12:49:24;94744.38;;;9.25;34.13
73383;BME280;61600;48.126;11.542;2023-03-11T12:54:46;94744.41;;;9.07;34.21
73383;BME280;61600;48.126;11.542;2023-03-11T13:02:40;94729.41;;;9.55;32.71
73383;BME280;61600;48.126;11.542;2023-03-11T13:05:51;94727.88;;;9.22;32.87
73383;BME280;61600;48.126;11.542;2023-03-11T13:08:20;94739.03;;;8.88;33.82
73383;BME280;61600;48.126;11.542;2023-03-11T13:10:47;94743.47;;;8.97;34.15
73383;BME280;61600;48.126;11.542;2023-03-11T13:18:36;94742.09;;;9.46;33.60
73383;BME280;61600;48.126;11.542;2023-03-11T13:21:06;94748.13;;;9.70;33.24
73383;BME280;61600;48.126;11.542;2023-03-11T13:23:49;94742.09;;;9.87;32.25
73383;BME280;61600;48.126;11.542;2023-03-11T13:26:28;94738.38;;;10.46;31.65
73383;BME280;61600;48.126;11.542;2023-03-11T13:29:13;94744.09;;;9.95;32.37
73383;BME280;61600;48.126;11.542;2023-03-11T13:32:13;94738.91;;;10.48;31.71
73383;BME280;61600;48.126;11.542;2023-03-11T13:35:04;94739.84;;;10.30;32.52
73383;BME280;61600;48.126;11.542;2023-03-11T13:40:31;94748.44;;;10.23;32.98
73383;BME280;61600;48.126;11.542;2023-03-11T13:43:21;94752.25;;;10.94;32.07
73383;BME280;61600;48.126;11.542;2023-03-11T13:45:58;94762.34;;;11.02;31.24
73383;BME280;61600;48.126;11.542;2023-03-11T13:48:32;94760.53;;;10.53;30.80
73383;BME280;61600;48.126;11.542;2023-03-11T13:51:10;94761.44;;;10.48;31.63
73383;BME280;61600;48.126;11.542;2023-03-11T13:53:56;94762.25;;;10.49;30.95
73383;BME280;61600;48.126;11.542;2023-03-11T13:56:30;94761.75;;;11.05;30.59
73383;BME280;61600;48.126;11.542;2023-03-11T13:59:32;94753.81;;;11.39;30.44
73383;BME280;61600;48.126;11.542;2023-03-11T14:02:15;94750.41;;;11.34;30.47
73383;BME280;61600;48.126;11.542;2023-03-11T14:04:53;94767.06;;;10.52;30.71
73383;BME280;61600;48.126;11.542;2023-03-11T14:07:24;94768.91;;;10.43;30.61
73383;BME280;61600;48.126;11.542;2023-03-11T14:09:51;94772.22;;;10.53;30.86
73383;BME280;61600;48.126;11.542;2023-03-11T14:12:31;94760.47;;;11.33;30.60
73383;BME280;61600;48.126;11.542;2023-03-11T14:15:03;94759.06;;;11.67;30.33
73383;BME280;61600;48.126;11.542;2023-03-11T14:17:30;94752.56;;;11.76;30.53
73383;BME280;61600;48.126;11.542;2023-03-11T14:20:04;94756.53;;;11.39;30.73
73383;BME280;61600;48.126;11.542;2023-03-11T14:22:35;94750.94;;;11.75;30.28
73383;BME280;61600;48.126;11.542;2023-03-11T14:25:06;94753.94;;;12.05;30.13
73383;BME280;61600;48.126;11.542;2023-03-11T14:27:32;94752.66;;;12.02;30.01
73383;BME280;61600;48.126;11.542;2023-03-11T14:29:58;94766.69;;;11.78;29.75
73383;BME280;61600;48.126;11.542;2023-03-11T14:32:27;94762.88;;;11.88;29.42